sensor_id;sensor_type;location;lat;lon;timestamp;temperature;humidity
31455;DHT22;18084;53.028;8.834;2023-04-30T00:00:00;5.70;99.90
31455;DHT22;18084;53.028;8.834;2023-04-30T00:02:28;5.70;99.90
31455;DHT22;18084;53.028;8.834;2023-04-30T00:04:53;5.70;99.90
31455;DHT22;18084;53.028;8.834;2023-04-30T00:07:19;5.60;99.90
31455;DHT22;18084;53.028;8.834;2023-04-30T00:09:44;5.60;99.90
31455;DHT22;18084;53.028;8.834;2023-04-30T00:12:10;5.50;99.90
31455;DHT22;18084;53.028;8.834;2023-04-30T00:14:36;5.50;99.90
31455;DHT22;18084;53.028;8.834;2023-04-30T00:17:01;5.40;99.90
31455;DHT22;18084;53.028;8.834;2023-04-30T00:19:27;5.30;99.90
31455;DHT22;18084;53.028;8.834;2023-04-30T00:21:53;5.30;99.90
31455;DHT22;18084;53.028;8.834;2023-04-30T00:24:18;5.20;99.90
31455;DHT22;18084;53.028;8.834;2023-04-30T00:26:44;5.20;99.90
31455;DHT22;18084;53.028;8.834;2023-04-30T00:29:10;5.20;99.90
31455;DHT22;18084;53.028;8.834;2023-04-30T00:31:35;5.10;99.90
31455;DHT22;18084;53.028;8.834;2023-04-30T00:34:01;5.10;99.90
31455;DHT22;18084;53.028;8.834;2023-04-30T00:36:26;5.10;99.90
31455;DHT22;18084;53.028;8.834;2023-04-30T00:38:52;5.00;99.90
31455;DHT22;18084;53.028;8.834;2023-04-30T00:41:17;4.90;99.90
31455;DHT22;18084;53.028;8.834;2023-04-30T00:43:43;4.90;99.90
31455;DHT22;18084;53.028;8.834;2023-04-30T00:46:11;4.90;99.90
31455;DHT22;18084;53.028;8.834;2023-04-30T00:48:36;4.80;99.90
31455;DHT22;18084;53.028;8.834;2023-04-30T00:51:02;4.90;99.90
31455;DHT22;18084;53.028;8.834;2023-04-30T00:53:28;4.80;99.90
31455;DHT22;18084;53.028;8.834;2023-04-30T00:55:53;4.90;99.90
31455;DHT22;18084;53.028;8.834;2023-04-30T00:58:20;4.90;99.90
31455;DHT22;18084;53.028;8.834;2023-04-30T01:00:47;4.90;99.90
31455;DHT22;18084;53.028;8.834;2023-04-30T01:03:13;4.80;99.90
31455;DHT22;18084;53.028;8.834;2023-04-30T01:05:38;4.80;99.90
31455;DHT22;18084;53.028;8.834;2023-04-30T01:08:05;4.80;99.90
31455;DHT22;18084;53.028;8.834;2023-04-30T01:10:31;4.70;99.90
31455;DHT22;18084;53.028;8.834;2023-04-30T01:13:27;4.60;99.90
31455;DHT22;18084;53.028;8.834;2023-04-30T01:15:58;4.60;99.90
31455;DHT22;18084;53.028;8.834;2023-04-30T01:18:28;4.70;99.90
31455;DHT22;18084;53.028;8.834;2023-04-30T01:21:31;4.70;99.90
31455;DHT22;18084;53.028;8.834;2023-04-30T01:24:23;4.50;99.90
31455;DHT22;18084;53.028;8.834;2023-04-30T01:27:22;4.50;99.90
31455;DHT22;18084;53.028;8.834;2023-04-30T01:51:11;4.20;99.90
31455;DHT22;18084;53.028;8.834;2023-04-30T01:53:41;4.20;99.90
31455;DHT22;18084;53.028;8.834;2023-04-30T01:56:11;4.20;99.90
31455;DHT22;18084;53.028;8.834;2023-04-30T01:58:39;4.10;99.90
31455;DHT22;18084;53.028;8.834;2023-04-30T02:01:04;4.10;99.90
31455;DHT22;18084;53.028;8.834;2023-04-30T02:03:31;4.00;99.90
31455;DHT22;18084;53.028;8.834;2023-04-30T02:05:56;3.90;99.90
31455;DHT22;18084;53.028;8.834;2023-04-30T02:08:23;4.00;99.90
31455;DHT22;18084;53.028;8.834;2023-04-30T02:10:48;4.00;99.90
31455;DHT22;18084;53.028;8.834;2023-04-30T02:13:14;4.00;99.90
31455;DHT22;18084;53.028;8.834;2023-04-30T02:15:40;4.00;99.90
31455;DHT22;18084;53.028;8.834;2023-04-30T02:18:05;4.00;99.90
31455;DHT22;18084;53.028;8.834;2023-04-30T02:20:31;5.70;99.90
31455;DHT22;18084;53.028;8.834;2023-04-30T02:22:56;4.00;99.90
31455;DHT22;18084;53.028;8.834;2023-04-30T02:25:25;4.60;99.90
31455;DHT22;18084;53.028;8.834;2023-04-30T02:27:50;3.80;99.90
31455;DHT22;18084;53.028;8.834;2023-04-30T02:30:16;3.70;99.90
31455;DHT22;18084;53.028;8.834;2023-04-30T02:32:41;3.70;99.90
31455;DHT22;18084;53.028;8.834;2023-04-30T02:35:07;3.70;99.90
31455;DHT22;18084;53.028;8.834;2023-04-30T02:37:32;3.70;99.90
31455;DHT22;18084;53.028;8.834;2023-04-30T02:39:58;3.70;99.90
31455;DHT22;18084;53.028;8.834;2023-04-30T02:42:23;3.70;99.90
31455;DHT22;18084;53.028;8.834;2023-04-30T02:44:49;3.80;99.90
31455;DHT22;18084;53.028;8.834;2023-04-30T02:47:14;3.70;99.90
31455;DHT22;18084;53.028;8.834;2023-04-30T02:49:40;3.70;99.90
31455;DHT22;18084;53.028;8.834;2023-04-30T02:52:05;3.60;99.90
31455;DHT22;18084;53.028;8.834;2023-04-30T02:54:33;3.60;99.90
31455;DHT22;18084;53.028;8.834;2023-04-30T02:56:59;3.60;99.90
31455;DHT22;18084;53.028;8.834;2023-04-30T02:59:24;3.50;99.90
31455;DHT22;18084;53.028;8.834;2023-04-30T03:01:50;3.50;99.90
31455;DHT22;18084;53.028;8.834;2023-04-30T03:04:16;3.50;99.90
31455;DHT22;18084;53.028;8.834;2023-04-30T03:06:41;3.50;99.90
31455;DHT22;18084;53.028;8.834;2023-04-30T03:09:07;3.50;99.90
31455;DHT22;18084;53.028;8.834;2023-04-30T03:11:32;3.40;99.90
31455;DHT22;18084;53.028;8.834;2023-04-30T03:14:02;3.50;99.90
31455;DHT22;18084;53.028;8.834;2023-04-30T03:16:27;3.50;99.90
31455;DHT22;18084;53.028;8.834;2023-04-30T03:18:55;3.40;99.90
31455;DHT22;18084;53.028;8.834;2023-04-30T03:21:20;3.40;99.90
31455;DHT22;18084;53.028;8.834;2023-04-30T03:23:46;3.40;99.90
31455;DHT22;18084;53.028;8.834;2023-04-30T03:26:11;3.40;99.90
31455;DHT22;18084;53.028;8.834;2023-04-30T03:28:37;3.30;99.90
31455;DHT22;18084;53.028;8.834;2023-04-30T03:31:02;3.30;99.90
31455;DHT22;18084;53.028;8.834;2023-04-30T03:33:31;3.40;99.90
31455;DHT22;18084;53.028;8.834;2023-04-30T03:35:57;3.30;99.90
31455;DHT22;18084;53.028;8.834;2023-04-30T03:38:22;3.30;99.90
31455;DHT22;18084;53.028;8.834;2023-04-30T03:40:48;3.20;99.90
31455;DHT22;18084;53.028;8.834;2023-04-30T03:43:14;3.30;99.90
31455;DHT22;18084;53.028;8.834;2023-04-30T03:45:39;3.30;99.90
31455;DHT22;18084;53.028;8.834;2023-04-30T03:48:05;3.30;99.90
31455;DHT22;18084;53.028;8.834;2023-04-30T03:50:30;3.20;99.90
31455;DHT22;18084;53.028;8.834;2023-04-30T03:52:56;3.20;99.90
31455;DHT22;18084;53.028;8.834;2023-04-30T03:55:21;3.10;99.90
31455;DHT22;18084;53.028;8.834;2023-04-30T03:57:47;3.10;99.90
31455;DHT22;18084;53.028;8.834;2023-04-30T04:00:12;3.10;99.90
31455;DHT22;18084;53.028;8.834;2023-04-30T04:02:38;3.00;99.90
31455;DHT22;18084;53.028;8.834;2023-04-30T04:05:04;3.00;99.90
31455;DHT22;18084;53.028;8.834;2023-04-30T04:07:30;3.00;99.90
31455;DHT22;18084;53.028;8.834;2023-04-30T04:09:55;3.10;99.90
31455;DHT22;18084;53.028;8.834;2023-04-30T04:12:21;3.00;99.90
31455;DHT22;18084;53.028;8.834;2023-04-30T04:14:46;3.00;99.90
31455;DHT22;18084;53.028;8.834;2023-04-30T04:17:12;2.90;99.90
31455;DHT22;18084;53.028;8.834;2023-04-30T04:19:38;3.00;99.90
31455;DHT22;18084;53.028;8.834;2023-04-30T04:22:04;3.10;99.90
31455;DHT22;18084;53.028;8.834;2023-04-30T04:24:30;3.10;99.90
31455;DHT22;18084;53.028;8.834;2023-04-30T04:26:56;3.10;99.90
31455;DHT22;18084;53.028;8.834;2023-04-30T04:29:25;3.10;99.90
31455;DHT22;18084;53.028;8.834;2023-04-30T04:31:50;3.10;99.90
31455;DHT22;18084;53.028;8.834;2023-04-30T04:34:16;3.10;99.90
31455;DHT22;18084;53.028;8.834;2023-04-30T04:36:42;3.10;99.90
31455;DHT22;18084;53.028;8.834;2023-04-30T04:39:07;3.10;99.90
31455;DHT22;18084;53.028;8.834;2023-04-30T04:41:33;3.20;99.90
31455;DHT22;18084;53.028;8.834;2023-04-30T04:44:00;3.20;99.90
31455;DHT22;18084;53.028;8.834;2023-04-30T04:46:30;3.20;99.90
31455;DHT22;18084;53.028;8.834;2023-04-30T04:48:56;3.30;99.90
31455;DHT22;18084;53.028;8.834;2023-04-30T04:51:23;3.50;99.90
31455;DHT22;18084;53.028;8.834;2023-04-30T04:53:49;3.70;99.90
31455;DHT22;18084;53.028;8.834;2023-04-30T04:56:15;3.80;99.90
31455;DHT22;18084;53.028;8.834;2023-04-30T04:58:41;3.90;99.90
31455;DHT22;18084;53.028;8.834;2023-04-30T05:01:06;4.10;99.90
31455;DHT22;18084;53.028;8.834;2023-04-30T05:03:33;4.20;99.90
31455;DHT22;18084;53.028;8.834;2023-04-30T05:06:01;4.40;99.90
31455;DHT22;18084;53.028;8.834;2023-04-30T05:08:27;4.50;99.90
31455;DHT22;18084;53.028;8.834;2023-04-30T05:10:52;4.80;99.90
31455;DHT22;18084;53.028;8.834;2023-04-30T05:13:18;5.00;99.90
31455;DHT22;18084;53.028;8.834;2023-04-30T05:15:43;5.10;99.90
31455;DHT22;18084;53.028;8.834;2023-04-30T05:18:08;5.40;99.90
31455;DHT22;18084;53.028;8.834;2023-04-30T05:20:34;5.40;99.90
31455;DHT22;18084;53.028;8.834;2023-04-30T05:22:59;5.60;99.90
31455;DHT22;18084;53.028;8.834;2023-04-30T05:25:25;5.70;99.90
31455;DHT22;18084;53.028;8.834;2023-04-30T05:27:50;5.90;99.90
31455;DHT22;18084;53.028;8.834;2023-04-30T05:30:16;6.30;99.90
31455;DHT22;18084;53.028;8.834;2023-04-30T05:32:42;6.60;99.90
31455;DHT22;18084;53.028;8.834;2023-04-30T05:35:08;6.60;99.90
31455;DHT22;18084;53.028;8.834;2023-04-30T05:37:34;6.90;99.90
31455;DHT22;18084;53.028;8.834;2023-04-30T05:39:59;7.20;99.90
31455;DHT22;18084;53.028;8.834;2023-04-30T05:42:25;7.50;99.90
31455;DHT22;18084;53.028;8.834;2023-04-30T05:44:50;7.80;99.90
31455;DHT22;18084;53.028;8.834;2023-04-30T05:47:16;7.90;99.90
31455;DHT22;18084;53.028;8.834;2023-04-30T05:49:42;8.00;99.90
31455;DHT22;18084;53.028;8.834;2023-04-30T05:52:07;8.10;99.90
31455;DHT22;18084;53.028;8.834;2023-04-30T05:54:33;8.40;99.90
31455;DHT22;18084;53.028;8.834;2023-04-30T05:56:58;8.70;98.50
31455;DHT22;18084;53.028;8.834;2023-04-30T05:59:24;9.30;99.90
31455;DHT22;18084;53.028;8.834;2023-04-30T06:01:50;9.90;94.50
31455;DHT22;18084;53.028;8.834;2023-04-30T06:04:15;10.20;81.20
31455;DHT22;18084;53.028;8.834;2023-04-30T06:06:41;10.60;1.00
31455;DHT22;18084;53.028;8.834;2023-04-30T06:09:07;11.00;1.00
31455;DHT22;18084;53.028;8.834;2023-04-30T06:11:33;10.90;99.90
31455;DHT22;18084;53.028;8.834;2023-04-30T06:13:59;10.70;99.90
31455;DHT22;18084;53.028;8.834;2023-04-30T06:16:24;10.80;1.00
31455;DHT22;18084;53.028;8.834;2023-04-30T06:18:50;10.60;1.00
31455;DHT22;18084;53.028;8.834;2023-04-30T06:21:15;11.60;99.90
31455;DHT22;18084;53.028;8.834;2023-04-30T06:23:41;11.20;14.90
31455;DHT22;18084;53.028;8.834;2023-04-30T06:26:06;11.30;99.90
31455;DHT22;18084;53.028;8.834;2023-04-30T06:28:32;12.50;99.90
31455;DHT22;18084;53.028;8.834;2023-04-30T06:30:58;13.30;99.90
31455;DHT22;18084;53.028;8.834;2023-04-30T06:33:24;13.90;99.90
31455;DHT22;18084;53.028;8.834;2023-04-30T06:35:50;14.10;99.90
31455;DHT22;18084;53.028;8.834;2023-04-30T06:38:18;14.40;1.00
31455;DHT22;18084;53.028;8.834;2023-04-30T06:40:44;13.80;1.00
31455;DHT22;18084;53.028;8.834;2023-04-30T06:43:09;14.00;23.10
31455;DHT22;18084;53.028;8.834;2023-04-30T06:45:35;14.90;99.90
31455;DHT22;18084;53.028;8.834;2023-04-30T06:48:01;15.20;99.90
31455;DHT22;18084;53.028;8.834;2023-04-30T06:50:26;14.30;99.90
31455;DHT22;18084;53.028;8.834;2023-04-30T06:52:52;13.70;99.90
31455;DHT22;18084;53.028;8.834;2023-04-30T06:55:18;14.20;99.90
31455;DHT22;18084;53.028;8.834;2023-04-30T06:57:43;14.80;96.60
31455;DHT22;18084;53.028;8.834;2023-04-30T07:00:09;14.30;1.00
31455;DHT22;18084;53.028;8.834;2023-04-30T07:02:35;15.30;99.90
31455;DHT22;18084;53.028;8.834;2023-04-30T07:05:01;15.50;99.90
31455;DHT22;18084;53.028;8.834;2023-04-30T07:07:26;15.50;99.90
31455;DHT22;18084;53.028;8.834;2023-04-30T07:09:52;16.30;4.40
31455;DHT22;18084;53.028;8.834;2023-04-30T07:12:18;16.50;99.90
31455;DHT22;18084;53.028;8.834;2023-04-30T07:14:46;15.60;99.90
31455;DHT22;18084;53.028;8.834;2023-04-30T07:17:12;15.60;30.30
31455;DHT22;18084;53.028;8.834;2023-04-30T07:19:37;16.70;99.90
31455;DHT22;18084;53.028;8.834;2023-04-30T07:22:03;15.90;99.90
31455;DHT22;18084;53.028;8.834;2023-04-30T07:24:28;14.80;1.00
31455;DHT22;18084;53.028;8.834;2023-04-30T07:26:54;14.70;19.80
31455;DHT22;18084;53.028;8.834;2023-04-30T07:29:20;15.00;1.00
31455;DHT22;18084;53.028;8.834;2023-04-30T07:31:45;15.60;1.00
31455;DHT22;18084;53.028;8.834;2023-04-30T07:34:11;16.90;99.90
31455;DHT22;18084;53.028;8.834;2023-04-30T07:36:37;17.10;79.50
31455;DHT22;18084;53.028;8.834;2023-04-30T07:39:03;17.30;1.00
31455;DHT22;18084;53.028;8.834;2023-04-30T07:41:29;16.60;1.00
31455;DHT22;18084;53.028;8.834;2023-04-30T07:43:55;15.10;63.30
31455;DHT22;18084;53.028;8.834;2023-04-30T07:46:21;14.60;99.90
31455;DHT22;18084;53.028;8.834;2023-04-30T07:48:47;14.00;1.00
31455;DHT22;18084;53.028;8.834;2023-04-30T07:51:12;13.50;57.40
31455;DHT22;18084;53.028;8.834;2023-04-30T07:53:38;13.00;99.90
31455;DHT22;18084;53.028;8.834;2023-04-30T07:56:03;12.70;1.00
31455;DHT22;18084;53.028;8.834;2023-04-30T07:58:29;12.70;1.00
31455;DHT22;18084;53.028;8.834;2023-04-30T08:00:54;13.60;99.90
31455;DHT22;18084;53.028;8.834;2023-04-30T08:03:20;13.30;99.90
31455;DHT22;18084;53.028;8.834;2023-04-30T08:05:46;13.10;99.90
31455;DHT22;18084;53.028;8.834;2023-04-30T08:08:11;12.70;1.00
31455;DHT22;18084;53.028;8.834;2023-04-30T08:10:38;12.10;99.90
31455;DHT22;18084;53.028;8.834;2023-04-30T08:13:04;12.00;99.90
31455;DHT22;18084;53.028;8.834;2023-04-30T08:15:29;11.90;99.90
31455;DHT22;18084;53.028;8.834;2023-04-30T08:17:55;11.70;99.90
31455;DHT22;18084;53.028;8.834;2023-04-30T08:20:20;11.90;99.90
31455;DHT22;18084;53.028;8.834;2023-04-30T08:22:47;12.00;99.90
31455;DHT22;18084;53.028;8.834;2023-04-30T08:25:13;12.00;99.90
31455;DHT22;18084;53.028;8.834;2023-04-30T08:27:38;11.90;99.90
31455;DHT22;18084;53.028;8.834;2023-04-30T08:30:04;12.10;99.90
31455;DHT22;18084;53.028;8.834;2023-04-30T08:32:33;11.90;1.00
31455;DHT22;18084;53.028;8.834;2023-04-30T08:35:01;11.90;99.90
31455;DHT22;18084;53.028;8.834;2023-04-30T08:37:26;12.50;1.00
31455;DHT22;18084;53.028;8.834;2023-04-30T08:39:52;13.70;99.90
31455;DHT22;18084;53.028;8.834;2023-04-30T08:42:18;13.90;99.90
31455;DHT22;18084;53.028;8.834;2023-04-30T08:44:45;14.30;3.60
31455;DHT22;18084;53.028;8.834;2023-04-30T08:47:12;15.10;1.00
31455;DHT22;18084;53.028;8.834;2023-04-30T08:49:39;15.90;99.90
31455;DHT22;18084;53.028;8.834;2023-04-30T08:52:05;16.30;99.90
31455;DHT22;18084;53.028;8.834;2023-04-30T08:54:31;16.90;99.90
31455;DHT22;18084;53.028;8.834;2023-04-30T08:56:57;17.10;29.70
31455;DHT22;18084;53.028;8.834;2023-04-30T08:59:23;18.00;1.00
31455;DHT22;18084;53.028;8.834;2023-04-30T09:01:48;17.20;1.00
31455;DHT22;18084;53.028;8.834;2023-04-30T09:04:14;16.60;1.00
31455;DHT22;18084;53.028;8.834;2023-04-30T09:06:41;16.20;1.00
31455;DHT22;18084;53.028;8.834;2023-04-30T09:09:12;16.30;1.00
31455;DHT22;18084;53.028;8.834;2023-04-30T09:11:38;16.80;1.00
31455;DHT22;18084;53.028;8.834;2023-04-30T09:14:04;16.70;1.00
31455;DHT22;18084;53.028;8.834;2023-04-30T09:16:48;16.80;1.00
31455;DHT22;18084;53.028;8.834;2023-04-30T09:19:24;17.10;1.00
31455;DHT22;18084;53.028;8.834;2023-04-30T09:21:50;16.70;1.00
31455;DHT22;18084;53.028;8.834;2023-04-30T09:24:16;16.80;1.00
31455;DHT22;18084;53.028;8.834;2023-04-30T09:26:42;16.30;1.00
31455;DHT22;18084;53.028;8.834;2023-04-30T09:29:07;16.50;1.00
31455;DHT22;18084;53.028;8.834;2023-04-30T09:31:35;17.10;1.00
31455;DHT22;18084;53.028;8.834;2023-04-30T09:34:01;17.20;1.00
31455;DHT22;18084;53.028;8.834;2023-04-30T09:36:28;17.20;1.00
31455;DHT22;18084;53.028;8.834;2023-04-30T09:38:54;17.50;1.00
31455;DHT22;18084;53.028;8.834;2023-04-30T09:41:27;17.70;1.00
31455;DHT22;18084;53.028;8.834;2023-04-30T09:43:56;16.90;1.00
31455;DHT22;18084;53.028;8.834;2023-04-30T09:46:30;16.60;1.00
31455;DHT22;18084;53.028;8.834;2023-04-30T09:49:00;16.90;1.00
31455;DHT22;18084;53.028;8.834;2023-04-30T09:51:27;16.80;1.00
31455;DHT22;18084;53.028;8.834;2023-04-30T09:53:53;16.80;1.00
31455;DHT22;18084;53.028;8.834;2023-04-30T09:56:23;16.40;1.00
31455;DHT22;18084;53.028;8.834;2023-04-30T09:58:51;16.80;1.00
31455;DHT22;18084;53.028;8.834;2023-04-30T10:01:19;17.20;1.00
31455;DHT22;18084;53.028;8.834;2023-04-30T10:03:44;16.80;1.00
31455;DHT22;18084;53.028;8.834;2023-04-30T10:06:12;16.40;1.00
31455;DHT22;18084;53.028;8.834;2023-04-30T10:08:41;16.60;1.00
31455;DHT22;18084;53.028;8.834;2023-04-30T10:11:09;16.60;1.00
31455;DHT22;18084;53.028;8.834;2023-04-30T10:13:44;16.20;1.00
31455;DHT22;18084;53.028;8.834;2023-04-30T10:16:14;16.00;1.00
31455;DHT22;18084;53.028;8.834;2023-04-30T10:18:45;15.90;1.00
31455;DHT22;18084;53.028;8.834;2023-04-30T10:21:12;15.10;1.00
31455;DHT22;18084;53.028;8.834;2023-04-30T10:23:40;14.70;1.00
31455;DHT22;18084;53.028;8.834;2023-04-30T10:26:10;14.70;96.00
31455;DHT22;18084;53.028;8.834;2023-04-30T10:28:37;14.90;47.30
31455;DHT22;18084;53.028;8.834;2023-04-30T10:31:04;15.30;90.10
31455;DHT22;18084;53.028;8.834;2023-04-30T10:33:50;15.60;3.80
31455;DHT22;18084;53.028;8.834;2023-04-30T10:36:42;15.60;79.40
31455;DHT22;18084;53.028;8.834;2023-04-30T10:39:10;15.70;38.00
31455;DHT22;18084;53.028;8.834;2023-04-30T10:41:37;16.10;90.00
31455;DHT22;18084;53.028;8.834;2023-04-30T10:44:03;16.50;99.90
31455;DHT22;18084;53.028;8.834;2023-04-30T10:46:29;15.70;73.80
31455;DHT22;18084;53.028;8.834;2023-04-30T10:48:55;16.30;21.80
31455;DHT22;18084;53.028;8.834;2023-04-30T10:51:21;16.30;1.00
31455;DHT22;18084;53.028;8.834;2023-04-30T10:53:49;16.20;1.00
31455;DHT22;18084;53.028;8.834;2023-04-30T10:56:30;15.90;1.00
31455;DHT22;18084;53.028;8.834;2023-04-30T10:59:00;16.00;1.00
31455;DHT22;18084;53.028;8.834;2023-04-30T11:01:27;15.80;1.00
31455;DHT22;18084;53.028;8.834;2023-04-30T11:04:08;16.00;96.40
31455;DHT22;18084;53.028;8.834;2023-04-30T11:09:16;15.60;1.00
31455;DHT22;18084;53.028;8.834;2023-04-30T11:11:46;15.40;7.20
31455;DHT22;18084;53.028;8.834;2023-04-30T11:14:19;15.40;76.90
31455;DHT22;18084;53.028;8.834;2023-04-30T11:16:48;15.60;41.40
31455;DHT22;18084;53.028;8.834;2023-04-30T11:19:14;15.80;73.80
31455;DHT22;18084;53.028;8.834;2023-04-30T11:21:40;16.20;56.70
31455;DHT22;18084;53.028;8.834;2023-04-30T11:24:06;16.10;1.00
31455;DHT22;18084;53.028;8.834;2023-04-30T11:29:16;16.60;13.10
31455;DHT22;18084;53.028;8.834;2023-04-30T11:31:41;16.40;29.40
31455;DHT22;18084;53.028;8.834;2023-04-30T11:34:08;15.30;99.90
31455;DHT22;18084;53.028;8.834;2023-04-30T11:36:36;15.10;1.00
31455;DHT22;18084;53.028;8.834;2023-04-30T11:39:03;15.30;99.90
31455;DHT22;18084;53.028;8.834;2023-04-30T11:41:30;15.30;99.90
31455;DHT22;18084;53.028;8.834;2023-04-30T11:43:55;15.30;99.90
31455;DHT22;18084;53.028;8.834;2023-04-30T11:46:21;15.30;99.90
31455;DHT22;18084;53.028;8.834;2023-04-30T11:48:47;15.30;99.90
31455;DHT22;18084;53.028;8.834;2023-04-30T11:51:13;15.20;99.90
31455;DHT22;18084;53.028;8.834;2023-04-30T11:53:39;15.10;99.90
31455;DHT22;18084;53.028;8.834;2023-04-30T11:56:06;15.30;99.90
31455;DHT22;18084;53.028;8.834;2023-04-30T11:58:35;15.40;99.90
31455;DHT22;18084;53.028;8.834;2023-04-30T12:01:03;15.90;99.90
31455;DHT22;18084;53.028;8.834;2023-04-30T12:03:30;16.50;98.80
31455;DHT22;18084;53.028;8.834;2023-04-30T12:05:56;16.80;76.60
31455;DHT22;18084;53.028;8.834;2023-04-30T12:08:22;16.90;9.80
31455;DHT22;18084;53.028;8.834;2023-04-30T12:10:48;17.10;9.30
31455;DHT22;18084;53.028;8.834;2023-04-30T12:13:14;17.30;1.00
31455;DHT22;18084;53.028;8.834;2023-04-30T12:15:41;17.00;1.00
31455;DHT22;18084;53.028;8.834;2023-04-30T12:18:10;16.50;1.00
31455;DHT22;18084;53.028;8.834;2023-04-30T12:20:38;16.70;1.60
31455;DHT22;18084;53.028;8.834;2023-04-30T12:23:05;16.80;1.00
31455;DHT22;18084;53.028;8.834;2023-04-30T12:25:41;16.00;1.00
31455;DHT22;18084;53.028;8.834;2023-04-30T12:28:09;16.70;8.80
31455;DHT22;18084;53.028;8.834;2023-04-30T12:30:35;16.90;1.00
31455;DHT22;18084;53.028;8.834;2023-04-30T12:33:00;18.50;11.60
31455;DHT22;18084;53.028;8.834;2023-04-30T12:35:29;17.00;1.00
31455;DHT22;18084;53.028;8.834;2023-04-30T12:38:05;17.10;1.00
31455;DHT22;18084;53.028;8.834;2023-04-30T12:40:33;17.80;1.00
31455;DHT22;18084;53.028;8.834;2023-04-30T12:43:03;17.30;1.00
31455;DHT22;18084;53.028;8.834;2023-04-30T12:45:42;17.40;1.00
31455;DHT22;18084;53.028;8.834;2023-04-30T12:48:09;17.70;1.00
31455;DHT22;18084;53.028;8.834;2023-04-30T12:50:34;17.00;1.00
31455;DHT22;18084;53.028;8.834;2023-04-30T12:53:03;17.00;7.60
31455;DHT22;18084;53.028;8.834;2023-04-30T12:55:33;17.40;51.30
31455;DHT22;18084;53.028;8.834;2023-04-30T12:58:08;16.40;1.00
31455;DHT22;18084;53.028;8.834;2023-04-30T13:00:47;16.20;1.00
31455;DHT22;18084;53.028;8.834;2023-04-30T13:03:14;16.50;3.70
31455;DHT22;18084;53.028;8.834;2023-04-30T13:05:40;16.80;1.00
31455;DHT22;18084;53.028;8.834;2023-04-30T13:08:06;16.70;1.00
31455;DHT22;18084;53.028;8.834;2023-04-30T13:10:32;16.90;1.00
31455;DHT22;18084;53.028;8.834;2023-04-30T13:12:58;17.20;1.00
31455;DHT22;18084;53.028;8.834;2023-04-30T13:15:24;17.20;1.00
31455;DHT22;18084;53.028;8.834;2023-04-30T13:17:49;17.10;1.00
31455;DHT22;18084;53.028;8.834;2023-04-30T13:20:15;17.10;1.00
31455;DHT22;18084;53.028;8.834;2023-04-30T13:22:41;16.90;1.00
31455;DHT22;18084;53.028;8.834;2023-04-30T13:25:07;17.20;23.60
31455;DHT22;18084;53.028;8.834;2023-04-30T13:27:32;17.50;2.40
31455;DHT22;18084;53.028;8.834;2023-04-30T13:29:58;17.10;43.50
31455;DHT22;18084;53.028;8.834;2023-04-30T13:32:24;18.50;12.50
31455;DHT22;18084;53.028;8.834;2023-04-30T13:34:49;17.20;1.00
31455;DHT22;18084;53.028;8.834;2023-04-30T13:37:19;17.10;1.00
31455;DHT22;18084;53.028;8.834;2023-04-30T13:39:45;17.20;1.00
31455;DHT22;18084;53.028;8.834;2023-04-30T13:42:10;17.50;1.00
31455;DHT22;18084;53.028;8.834;2023-04-30T13:44:36;17.50;1.00
31455;DHT22;18084;53.028;8.834;2023-04-30T13:47:05;16.80;1.00
31455;DHT22;18084;53.028;8.834;2023-04-30T13:49:32;16.70;1.00
31455;DHT22;18084;53.028;8.834;2023-04-30T13:52:00;16.00;1.00
31455;DHT22;18084;53.028;8.834;2023-04-30T13:54:26;16.80;14.90
31455;DHT22;18084;53.028;8.834;2023-04-30T13:56:51;16.60;18.90
31455;DHT22;18084;53.028;8.834;2023-04-30T13:59:17;17.00;42.60
31455;DHT22;18084;53.028;8.834;2023-04-30T14:01:43;17.20;1.00
31455;DHT22;18084;53.028;8.834;2023-04-30T14:04:08;17.50;1.00
31455;DHT22;18084;53.028;8.834;2023-04-30T14:06:34;17.50;1.00
31455;DHT22;18084;53.028;8.834;2023-04-30T14:08:59;17.30;1.00
31455;DHT22;18084;53.028;8.834;2023-04-30T14:11:25;17.10;1.00
31455;DHT22;18084;53.028;8.834;2023-04-30T14:13:54;17.20;1.00
31455;DHT22;18084;53.028;8.834;2023-04-30T14:16:19;16.90;1.00
31455;DHT22;18084;53.028;8.834;2023-04-30T14:18:45;17.10;71.90
31455;DHT22;18084;53.028;8.834;2023-04-30T14:21:10;17.20;1.00
31455;DHT22;18084;53.028;8.834;2023-04-30T14:23:36;18.20;1.00
31455;DHT22;18084;53.028;8.834;2023-04-30T14:26:03;17.10;1.00
31455;DHT22;18084;53.028;8.834;2023-04-30T14:28:29;17.50;9.50
31455;DHT22;18084;53.028;8.834;2023-04-30T14:30:54;17.50;75.60
31455;DHT22;18084;53.028;8.834;2023-04-30T14:33:20;17.80;1.00
31455;DHT22;18084;53.028;8.834;2023-04-30T14:35:45;18.20;1.00
31455;DHT22;18084;53.028;8.834;2023-04-30T14:38:12;17.40;1.00
31455;DHT22;18084;53.028;8.834;2023-04-30T14:40:38;17.00;1.00
31455;DHT22;18084;53.028;8.834;2023-04-30T14:43:03;17.00;21.70
31455;DHT22;18084;53.028;8.834;2023-04-30T14:45:31;17.10;22.50
31455;DHT22;18084;53.028;8.834;2023-04-30T14:47:56;16.80;2.10
31455;DHT22;18084;53.028;8.834;2023-04-30T14:50:22;16.90;39.00
31455;DHT22;18084;53.028;8.834;2023-04-30T14:52:48;17.00;11.10
31455;DHT22;18084;53.028;8.834;2023-04-30T14:55:14;17.20;20.50
31455;DHT22;18084;53.028;8.834;2023-04-30T14:57:41;17.20;6.20
31455;DHT22;18084;53.028;8.834;2023-04-30T15:00:10;17.40;4.40
31455;DHT22;18084;53.028;8.834;2023-04-30T15:02:36;17.20;1.00
31455;DHT22;18084;53.028;8.834;2023-04-30T15:05:05;17.20;1.10
31455;DHT22;18084;53.028;8.834;2023-04-30T15:07:31;17.20;1.00
31455;DHT22;18084;53.028;8.834;2023-04-30T15:09:57;18.90;1.50
31455;DHT22;18084;53.028;8.834;2023-04-30T15:12:22;17.10;19.50
31455;DHT22;18084;53.028;8.834;2023-04-30T15:14:47;16.90;3.40
31455;DHT22;18084;53.028;8.834;2023-04-30T15:17:13;16.80;9.90
31455;DHT22;18084;53.028;8.834;2023-04-30T15:19:38;16.70;13.90
31455;DHT22;18084;53.028;8.834;2023-04-30T15:22:05;16.70;45.80
31455;DHT22;18084;53.028;8.834;2023-04-30T15:24:31;16.40;32.90
31455;DHT22;18084;53.028;8.834;2023-04-30T15:26:56;16.60;72.50
31455;DHT22;18084;53.028;8.834;2023-04-30T15:29:22;16.90;60.90
31455;DHT22;18084;53.028;8.834;2023-04-30T15:31:47;17.00;13.80
31455;DHT22;18084;53.028;8.834;2023-04-30T15:34:16;17.00;21.10
31455;DHT22;18084;53.028;8.834;2023-04-30T15:36:41;17.00;4.40
31455;DHT22;18084;53.028;8.834;2023-04-30T15:39:07;17.70;15.60
31455;DHT22;18084;53.028;8.834;2023-04-30T15:41:32;16.40;35.20
31455;DHT22;18084;53.028;8.834;2023-04-30T15:43:58;16.50;30.50
31455;DHT22;18084;53.028;8.834;2023-04-30T15:46:23;17.90;97.00
31455;DHT22;18084;53.028;8.834;2023-04-30T15:48:49;16.70;22.30
31455;DHT22;18084;53.028;8.834;2023-04-30T15:51:15;16.80;91.00
31455;DHT22;18084;53.028;8.834;2023-04-30T15:53:40;18.20;60.60
31455;DHT22;18084;53.028;8.834;2023-04-30T15:56:06;18.50;25.00
31455;DHT22;18084;53.028;8.834;2023-04-30T15:58:33;16.70;28.10
31455;DHT22;18084;53.028;8.834;2023-04-30T16:00:58;17.30;21.40
31455;DHT22;18084;53.028;8.834;2023-04-30T16:03:24;18.10;37.80
31455;DHT22;18084;53.028;8.834;2023-04-30T16:05:50;16.30;57.40